Time;durP1;ratioP1;P1;durP2;ratioP2;P2;SDS_P1;SDS_P2;PMS_P1;PMS_P2;Temp;Humidity;BMP_temperature;BMP_pressure;BME280_temperature;BME280_humidity;BME280_pressure;Samples;Min_cycle;Max_cycle;Signal;HPM_P1;HPM_P2
2021/12/22 00:00:46;;;;;;;3.20;1.60;;;-1.30;99.90;;;;;;5095284;28;20536;-51
2021/12/22 00:03:14;;;;;;;4.00;1.50;;;-1.30;99.90;;;;;;5096404;28;20814;-57
2021/12/22 00:05:45;;;;;;;5.77;2.93;;;-1.30;99.90;;;;;;5096416;28;20573;-54
2021/12/22 00:08:13;;;;;;;9.53;2.23;;;-1.30;99.90;;;;;;5095954;28;20449;-57
2021/12/22 00:10:41;;;;;;;7.57;1.40;;;-1.40;99.90;;;;;;5095597;28;20572;-55
2021/12/22 00:13:08;;;;;;;6.03;2.77;;;-1.50;99.90;;;;;;5095659;28;20442;-56
2021/12/22 00:15:36;;;;;;;5.20;1.93;;;-1.50;99.90;;;;;;5097366;28;20564;-54
2021/12/22 00:18:03;;;;;;;5.17;1.93;;;-1.60;99.90;;;;;;5096685;28;20484;-56
2021/12/22 00:20:34;;;;;;;3.40;2.33;;;-1.70;99.90;;;;;;5095275;28;20489;-56
2021/12/22 00:23:01;;;;;;;3.97;1.40;;;-1.70;99.90;;;;;;5096578;28;20532;-57
2021/12/22 00:25:28;;;;;;;3.20;1.80;;;-1.80;99.90;;;;;;5097151;28;20492;-56
2021/12/22 00:27:57;;;;;;;11.17;2.80;;;-1.80;99.90;;;;;;5096583;28;20448;-54
2021/12/22 00:30:25;;;;;;;6.13;3.00;;;-1.80;99.90;;;;;;5096880;28;20461;-56
2021/12/22 00:33:02;;;;;;;5.27;1.60;;;-1.70;99.90;;;;;;5097097;28;20498;-56
2021/12/22 00:35:37;;;;;;;10.40;1.70;;;-1.60;99.90;;;;;;5096834;28;20457;-57
2021/12/22 00:38:06;;;;;;;4.33;1.40;;;-1.70;99.90;;;;;;5097067;28;20487;-57
2021/12/22 00:40:33;;;;;;;2.30;1.73;;;-1.60;99.90;;;;;;5095035;28;20556;-56
2021/12/22 00:43:01;;;;;;;6.23;2.40;;;-1.60;99.90;;;;;;5096059;28;20503;-57
2021/12/22 00:45:30;;;;;;;6.00;1.80;;;-1.60;99.90;;;;;;5095451;28;20973;-55
2021/12/22 00:47:57;;;;;;;3.40;1.50;;;-1.60;99.90;;;;;;5093699;28;20473;-55
2021/12/22 00:50:25;;;;;;;4.90;2.00;;;-1.70;99.90;;;;;;5094045;28;20820;-55
2021/12/22 00:52:52;;;;;;;4.60;1.83;;;-1.70;99.90;;;;;;5094347;28;20456;-57
2021/12/22 00:55:22;;;;;;;8.73;2.20;;;-1.80;99.90;;;;;;5094553;28;20490;-55
2021/12/22 00:57:50;;;;;;;4.40;2.00;;;-1.80;99.90;;;;;;5095150;28;20796;-56
2021/12/22 01:00:21;;;;;;;5.60;2.03;;;-1.80;99.90;;;;;;5097104;28;20458;-54
2021/12/22 01:02:48;;;;;;;5.37;1.43;;;-1.90;99.90;;;;;;5096045;28;20495;-57
2021/12/22 01:05:17;;;;;;;7.20;1.80;;;-1.80;99.90;;;;;;5097130;28;20545;-57
2021/12/22 01:07:47;;;;;;;8.93;2.10;;;-1.80;99.90;;;;;;5097312;28;20437;-56
2021/12/22 01:10:22;;;;;;;4.17;1.50;;;-1.90;99.90;;;;;;5097231;28;20525;-56
2021/12/22 01:12:51;;;;;;;3.60;2.00;;;-1.90;99.90;;;;;;5097170;28;20534;-53
2021/12/22 01:15:18;;;;;;;8.03;2.40;;;-2.00;99.90;;;;;;5095760;28;20503;-56
2021/12/22 01:17:49;;;;;;;2.60;1.47;;;-2.00;99.90;;;;;;5095445;28;20560;-55
2021/12/22 01:20:22;;;;;;;4.23;1.93;;;-2.00;99.90;;;;;;5094854;28;20549;-54
2021/12/22 01:22:50;;;;;;;5.07;1.70;;;-2.10;99.90;;;;;;5095077;28;20760;-57
2021/12/22 01:25:22;;;;;;;7.53;1.60;;;-2.10;99.90;;;;;;5094291;28;20450;-57
2021/12/22 01:27:51;;;;;;;2.90;1.33;;;-2.10;99.90;;;;;;5095052;28;20888;-55
2021/12/22 01:30:24;;;;;;;3.53;1.47;;;-2.10;99.90;;;;;;5095073;28;20450;-56
2021/12/22 01:32:54;;;;;;;7.10;2.60;;;-2.10;99.90;;;;;;5094651;28;20473;-56
2021/12/22 01:35:24;;;;;;;3.00;1.73;;;-2.10;99.90;;;;;;5092979;28;20453;-56
2021/12/22 01:37:51;;;;;;;5.67;2.17;;;-2.00;99.90;;;;;;5093449;28;20511;-54
2021/12/22 01:40:20;;;;;;;4.30;2.60;;;-2.00;99.90;;;;;;5093044;28;20968;-55
2021/12/22 01:42:48;;;;;;;4.47;1.97;;;-2.00;99.90;;;;;;5092407;28;20536;-56
2021/12/22 01:45:48;;;;;;;3.40;1.50;;;-2.00;99.90;;;;;;5094698;28;20550;-57
2021/12/22 01:51:05;;;;;;;3.30;1.67;;;-2.00;99.90;;;;;;5096047;28;20518;-57
2021/12/22 01:53:41;;;;;;;8.97;2.40;;;-2.00;99.90;;;;;;5096040;28;20473;-55
2021/12/22 01:56:20;;;;;;;6.40;1.97;;;-2.10;99.90;;;;;;5095946;28;20536;-56
2021/12/22 01:58:49;;;;;;;4.80;1.97;;;-2.10;99.90;;;;;;5096341;28;20477;-55
2021/12/22 02:01:17;;;;;;;6.43;2.60;;;-2.10;99.90;;;;;;5096102;28;20560;-56
2021/12/22 02:03:45;;;;;;;5.37;1.80;;;-2.20;99.90;;;;;;5096075;28;20532;-57
2021/12/22 02:06:13;;;;;;;10.27;2.23;;;-2.30;99.90;;;;;;5096664;28;20548;-56
2021/12/22 02:08:43;;;;;;;8.20;2.37;;;-2.30;99.90;;;;;;5096237;28;20465;-57
2021/12/22 02:11:13;;;;;;;6.73;2.50;;;-2.30;99.90;;;;;;5096036;28;20445;-57
2021/12/22 02:13:43;;;;;;;2.60;1.37;;;-2.30;99.90;;;;;;5095896;28;20817;-56
2021/12/22 02:16:14;;;;;;;7.10;3.03;;;-2.30;99.90;;;;;;5095983;28;20459;-55
2021/12/22 02:18:43;;;;;;;5.80;2.80;;;-2.30;99.90;;;;;;5096132;28;20477;-55
2021/12/22 02:21:12;;;;;;;5.90;1.53;;;-2.30;99.90;;;;;;5094956;28;20465;-54
2021/12/22 02:23:45;;;;;;;12.70;2.33;;;-2.30;99.90;;;;;;5094973;28;20571;-56
2021/12/22 02:26:16;;;;;;;4.30;1.83;;;-2.30;99.90;;;;;;5093204;28;20445;-56
2021/12/22 02:28:47;;;;;;;6.90;2.27;;;-2.30;99.90;;;;;;5093712;28;20442;-56
2021/12/22 02:31:17;;;;;;;4.57;1.87;;;-2.30;99.90;;;;;;5094284;28;20548;-56
2021/12/22 02:33:47;;;;;;;6.10;1.93;;;-2.40;99.90;;;;;;5094590;28;20453;-57
2021/12/22 02:36:23;;;;;;;4.20;2.60;;;-2.40;99.90;;;;;;5094090;28;20507;-52
2021/12/22 02:38:53;;;;;;;6.67;2.63;;;-2.40;99.90;;;;;;5094314;28;20558;-56
2021/12/22 02:41:26;;;;;;;3.20;1.40;;;-2.40;99.90;;;;;;5094286;28;20485;-56
2021/12/22 02:43:55;;;;;;;4.50;1.90;;;-2.30;99.90;;;;;;5094189;28;20783;-56
2021/12/22 02:46:24;;;;;;;7.83;3.07;;;-2.20;99.90;;;;;;5094343;28;20453;-56
2021/12/22 02:48:52;;;;;;;4.00;2.00;;;-2.20;99.90;;;;;;5094425;28;20539;-55
2021/12/22 02:51:22;;;;;;;6.30;2.20;;;-2.30;99.90;;;;;;5095492;28;20547;-57
2021/12/22 02:54:02;;;;;;;4.63;2.67;;;-2.30;99.90;;;;;;5095124;28;20441;-56
2021/12/22 02:56:36;;;;;;;10.00;2.47;;;-2.30;99.90;;;;;;5093989;28;20459;-57
2021/12/22 02:59:13;;;;;;;11.17;3.07;;;-2.30;99.90;;;;;;5093786;28;20803;-56
2021/12/22 03:02:06;;;;;;;9.80;2.70;;;-2.30;99.90;;;;;;5094668;28;20899;-54
2021/12/22 03:04:43;;;;;;;3.63;1.47;;;-2.30;99.90;;;;;;5099074;28;20546;-57
2021/12/22 03:07:15;;;;;;;3.87;1.27;;;-2.40;99.90;;;;;;5099646;28;20452;-56
2021/12/22 03:09:42;;;;;;;8.70;2.90;;;-2.40;99.90;;;;;;5098831;28;20460;-56
2021/12/22 03:12:13;;;;;;;5.20;2.60;;;-2.50;99.90;;;;;;5098878;28;20943;-57
2021/12/22 03:14:40;;;;;;;5.50;2.00;;;-2.50;99.90;;;;;;5097530;28;20457;-56
2021/12/22 03:17:07;;;;;;;4.07;1.97;;;-2.50;99.90;;;;;;5098097;28;20481;-56
2021/12/22 03:19:36;;;;;;;4.37;1.43;;;-2.40;99.90;;;;;;5096280;28;21021;-54
2021/12/22 03:22:07;;;;;;;5.20;2.57;;;-2.30;99.90;;;;;;5097376;28;20536;-55
2021/12/22 03:24:37;;;;;;;5.00;2.57;;;-2.30;99.90;;;;;;5097237;28;20463;-54
2021/12/22 03:27:08;;;;;;;13.30;3.97;;;-2.30;99.90;;;;;;5096490;28;20924;-57
2021/12/22 03:29:37;;;;;;;3.23;1.97;;;-2.40;99.90;;;;;;5097826;28;20456;-57
2021/12/22 03:32:04;;;;;;;4.67;2.40;;;-2.30;99.90;;;;;;5098108;28;20575;-55
2021/12/22 03:34:31;;;;;;;7.30;3.07;;;-2.30;99.90;;;;;;5097094;28;20857;-56
2021/12/22 03:36:58;;;;;;;4.03;1.27;;;-2.20;99.90;;;;;;5097263;28;20492;-51
2021/12/22 03:39:27;;;;;;;5.97;2.33;;;-2.20;99.90;;;;;;5097230;28;20609;-56
2021/12/22 03:41:56;;;;;;;3.10;1.57;;;-2.20;99.90;;;;;;5096175;28;20456;-55
2021/12/22 03:44:23;;;;;;;7.63;1.77;;;-2.20;99.90;;;;;;5095914;28;20457;-56
2021/12/22 03:46:50;;;;;;;5.97;2.30;;;-2.30;99.90;;;;;;5096135;28;20511;-55
2021/12/22 03:49:18;;;;;;;4.13;2.90;;;-2.20;99.90;;;;;;5098486;28;20537;-56
2021/12/22 03:51:45;;;;;;;3.80;1.80;;;-2.20;99.90;;;;;;5098529;28;20548;-55
2021/12/22 03:54:14;;;;;;;7.23;2.93;;;-2.20;99.90;;;;;;5098392;28;20488;-54
2021/12/22 03:56:41;;;;;;;5.87;1.97;;;-2.10;99.90;;;;;;5097315;28;20892;-56
2021/12/22 03:59:10;;;;;;;5.87;1.93;;;-2.00;99.90;;;;;;5094529;28;20568;-54
2021/12/22 04:01:37;;;;;;;4.70;1.77;;;-2.00;99.90;;;;;;5094459;28;20535;-57
2021/12/22 04:04:10;;;;;;;8.07;1.93;;;-1.90;99.90;;;;;;5093761;28;20884;-54
2021/12/22 04:06:38;;;;;;;3.80;2.30;;;-1.90;99.90;;;;;;5094725;28;20646;-54
2021/12/22 04:09:05;;;;;;;3.60;2.17;;;-1.80;99.90;;;;;;5094834;28;20469;-56
2021/12/22 04:11:32;;;;;;;3.50;1.60;;;-1.80;99.90;;;;;;5094748;28;20441;-56
2021/12/22 04:13:59;;;;;;;9.60;2.70;;;-1.80;99.90;;;;;;5096239;28;20520;-56
2021/12/22 04:16:28;;;;;;;4.70;2.07;;;-1.90;99.90;;;;;;5097497;28;20536;-57
2021/12/22 04:18:55;;;;;;;6.80;2.83;;;-2.00;99.90;;;;;;5097446;28;20572;-57
2021/12/22 04:21:22;;;;;;;8.70;3.57;;;-2.00;99.90;;;;;;5097529;28;20719;-54
2021/12/22 04:23:49;;;;;;;5.93;2.23;;;-2.00;99.90;;;;;;5097217;28;20442;-57
2021/12/22 04:26:16;;;;;;;11.43;2.23;;;-2.10;99.90;;;;;;5096891;28;20556;-53
2021/12/22 04:28:43;;;;;;;5.33;2.90;;;-2.10;99.90;;;;;;5095906;28;20444;-57
2021/12/22 04:31:10;;;;;;;6.97;1.97;;;-2.10;99.90;;;;;;5096078;28;20540;-53
2021/12/22 04:33:39;;;;;;;4.57;1.67;;;-2.10;99.90;;;;;;5096240;28;20488;-57
2021/12/22 04:36:06;;;;;;;7.87;2.30;;;-2.20;99.90;;;;;;5096951;28;20544;-57
2021/12/22 04:38:33;;;;;;;3.50;1.60;;;-2.30;99.90;;;;;;5096172;28;20479;-55
2021/12/22 04:41:00;;;;;;;4.77;2.60;;;-2.30;99.90;;;;;;5095961;28;20544;-56
2021/12/22 04:43:27;;;;;;;7.00;3.30;;;-2.30;99.90;;;;;;5096871;28;20524;-57
2021/12/22 04:45:54;;;;;;;5.93;2.33;;;-2.30;99.90;;;;;;5097654;28;20471;-56
2021/12/22 04:48:22;;;;;;;6.20;2.20;;;-2.30;99.90;;;;;;5097542;28;20437;-57
2021/12/22 04:50:52;;;;;;;5.80;2.83;;;-2.20;99.90;;;;;;5097811;28;20493;-54
2021/12/22 04:53:23;;;;;;;6.60;2.13;;;-2.30;99.90;;;;;;5097286;28;20496;-56
2021/12/22 04:55:50;;;;;;;4.70;1.63;;;-2.20;99.90;;;;;;5097413;28;20884;-56
2021/12/22 04:58:17;;;;;;;6.43;2.70;;;-2.00;99.90;;;;;;5096944;28;20503;-57
2021/12/22 05:00:45;;;;;;;4.00;1.63;;;-2.10;99.90;;;;;;5097407;28;20516;-56
2021/12/22 05:03:12;;;;;;;6.67;2.93;;;-2.30;99.90;;;;;;5097441;28;20524;-57
2021/12/22 05:05:39;;;;;;;14.53;2.20;;;-2.30;99.90;;;;;;5096758;28;20486;-57
2021/12/22 05:08:07;;;;;;;4.83;1.97;;;-2.40;99.90;;;;;;5096269;28;20532;-53
2021/12/22 05:10:34;;;;;;;5.50;1.50;;;-2.50;99.90;;;;;;5096372;28;20578;-55
2021/12/22 05:13:01;;;;;;;5.70;1.73;;;-2.50;99.90;;;;;;5097044;28;20452;-57
2021/12/22 05:15:36;;;;;;;4.80;2.43;;;-2.60;99.90;;;;;;5096361;28;20549;-60
2021/12/22 05:18:24;;;;;;;6.80;1.77;;;-2.50;99.90;;;;;;5096969;28;20452;-57
2021/12/22 05:20:52;;;;;;;3.33;1.87;;;-2.60;99.90;;;;;;5095730;28;20745;-55
2021/12/22 05:23:20;;;;;;;6.03;2.87;;;-2.60;99.90;;;;;;5096090;28;20480;-55
2021/12/22 05:25:48;;;;;;;7.67;1.80;;;-2.60;99.90;;;;;;5096460;28;20808;-56
2021/12/22 05:28:15;;;;;;;5.73;2.17;;;-2.40;99.90;;;;;;5095985;28;20527;-57
2021/12/22 05:30:46;;;;;;;6.20;2.33;;;-1.90;99.90;;;;;;5095575;28;20514;-57
2021/12/22 05:33:13;;;;;;;4.80;1.37;;;-1.30;99.90;;;;;;5094370;28;20540;-57
2021/12/22 05:35:41;;;;;;;6.20;2.50;;;-1.20;99.90;;;;;;5095283;28;20437;-58
2021/12/22 05:38:08;;;;;;;5.83;1.73;;;-1.30;99.90;;;;;;5094917;28;20525;-58
2021/12/22 05:40:36;;;;;;;5.93;2.83;;;-0.80;99.90;;;;;;5095422;28;20856;-57
2021/12/22 05:43:03;;;;;;;4.90;1.97;;;-0.90;99.90;;;;;;5095947;28;20619;-58
2021/12/22 05:45:30;;;;;;;4.17;1.00;;;-0.40;99.90;;;;;;5095921;28;20569;-59
2021/12/22 05:47:57;;;;;;;6.67;2.30;;;-0.10;99.90;;;;;;5095247;28;20533;-58
2021/12/22 05:50:27;;;;;;;3.60;1.63;;;0.40;99.90;;;;;;5095264;28;20508;-59
2021/12/22 05:52:54;;;;;;;4.00;1.70;;;1.10;99.90;;;;;;5095777;28;20488;-58
2021/12/22 05:55:21;;;;;;;7.23;1.77;;;1.40;99.90;;;;;;5095171;28;20548;-59
2021/12/22 05:57:50;;;;;;;5.20;1.90;;;1.50;99.90;;;;;;5095239;28;20520;-58
2021/12/22 06:00:17;;;;;;;2.83;1.87;;;1.50;99.90;;;;;;5094939;28;20559;-59
2021/12/22 06:02:46;;;;;;;7.83;2.70;;;1.60;99.90;;;;;;5095632;28;20536;-58
2021/12/22 06:05:13;;;;;;;3.90;1.77;;;1.00;99.90;;;;;;5094983;28;20902;-58
2021/12/22 06:07:39;;;;;;;4.53;1.90;;;1.20;99.90;;;;;;5095346;28;20825;-58
2021/12/22 06:10:08;;;;;;;5.93;2.10;;;1.10;99.90;;;;;;5093692;28;20548;-59
2021/12/22 06:12:34;;;;;;;2.87;1.43;;;0.90;99.90;;;;;;5093985;28;20544;-59
2021/12/22 06:15:03;;;;;;;6.40;2.13;;;0.70;99.90;;;;;;5093877;28;20481;-59
2021/12/22 06:17:30;;;;;;;7.37;2.80;;;0.60;99.90;;;;;;5094519;28;20453;-59
2021/12/22 06:19:59;;;;;;;5.17;2.43;;;0.40;99.90;;;;;;5094801;28;20489;-58
2021/12/22 06:22:28;;;;;;;3.60;1.93;;;-0.10;99.90;;;;;;5094780;28;20478;-58
2021/12/22 06:24:55;;;;;;;6.40;1.83;;;-0.40;99.90;;;;;;5092181;28;20904;-59
2021/12/22 06:27:22;;;;;;;6.90;4.03;;;-1.10;99.90;;;;;;5091904;28;20874;-57
2021/12/22 06:29:49;;;;;;;9.40;2.53;;;-1.40;99.90;;;;;;5093523;28;20282;-58
2021/12/22 06:32:17;;;;;;;5.83;2.37;;;-1.70;99.90;;;;;;5093702;28;20540;-58
2021/12/22 06:34:44;;;;;;;8.37;3.10;;;-1.90;99.90;;;;;;5093627;28;20576;-57
2021/12/22 06:37:13;;;;;;;5.23;2.37;;;-1.90;99.90;;;;;;5094345;28;20487;-55
2021/12/22 06:39:44;;;;;;;3.87;2.33;;;-2.00;99.90;;;;;;5097651;28;20484;-57
2021/12/22 06:42:11;;;;;;;6.03;2.20;;;-2.10;99.90;;;;;;5097861;28;20930;-56
2021/12/22 06:44:38;;;;;;;5.50;1.60;;;-2.00;99.90;;;;;;5097173;28;20540;-57
2021/12/22 06:47:06;;;;;;;4.30;1.63;;;-1.80;99.90;;;;;;5097218;28;20445;-56
2021/12/22 06:49:34;;;;;;;6.20;1.77;;;-1.80;99.90;;;;;;5096872;28;20449;-58
2021/12/22 06:52:01;;;;;;;6.60;2.43;;;-1.70;99.90;;;;;;5096563;28;20527;-55
2021/12/22 06:54:28;;;;;;;7.27;3.03;;;-1.70;99.90;;;;;;5098084;28;20923;-56
2021/12/22 06:56:55;;;;;;;9.90;2.77;;;-1.80;99.90;;;;;;5098229;28;20993;-57
2021/12/22 06:59:21;;;;;;;7.60;3.10;;;-1.90;99.90;;;;;;5098251;28;20578;-57
2021/12/22 07:01:50;;;;;;;7.03;2.77;;;-1.90;99.90;;;;;;5098830;28;20449;-57
2021/12/22 07:04:18;;;;;;;3.57;1.80;;;-1.80;99.90;;;;;;5098414;28;20776;-58
2021/12/22 07:06:47;;;;;;;3.20;2.13;;;-1.80;99.90;;;;;;5097243;28;20643;-57
2021/12/22 07:09:14;;;;;;;8.57;3.17;;;-1.80;99.90;;;;;;5096163;28;20495;-57
2021/12/22 07:11:41;;;;;;;4.93;2.60;;;-1.70;99.90;;;;;;5095829;28;20489;-59
2021/12/22 07:14:09;;;;;;;7.50;2.90;;;-1.70;99.90;;;;;;5095514;28;20463;-58
2021/12/22 07:16:38;;;;;;;5.93;2.23;;;-1.90;99.90;;;;;;5093396;28;20441;-57
2021/12/22 07:19:05;;;;;;;4.67;2.37;;;-2.10;99.90;;;;;;5096901;28;20536;-57
2021/12/22 07:21:32;;;;;;;3.60;1.87;;;-2.30;99.90;;;;;;5096881;28;20491;-56
2021/12/22 07:24:01;;;;;;;5.10;1.87;;;-2.40;99.90;;;;;;5097661;28;20532;-57
2021/12/22 07:26:27;;;;;;;7.47;2.43;;;-2.60;99.90;;;;;;5097391;28;20483;-56
2021/12/22 07:28:56;;;;;;;11.60;3.43;;;-2.60;99.90;;;;;;5094499;28;20532;-53
2021/12/22 07:31:25;;;;;;;5.07;2.17;;;-2.70;99.90;;;;;;5093044;28;20522;-57
2021/12/22 07:34:01;;;;;;;7.10;2.90;;;-2.80;99.90;;;;;;5096866;28;20446;-55
2021/12/22 07:36:28;;;;;;;6.30;1.53;;;-2.70;99.90;;;;;;5095426;28;20782;-54
2021/12/22 07:39:04;;;;;;;9.07;2.90;;;-2.70;99.90;;;;;;5095030;28;20502;-54
2021/12/22 07:41:32;;;;;;;9.50;2.20;;;-2.70;99.90;;;;;;5076371;28;20469;-54
2021/12/22 07:44:01;;;;;;;6.03;1.80;;;-2.70;99.90;;;;;;5075403;28;20924;-56
2021/12/22 07:46:28;;;;;;;5.77;1.70;;;-2.70;99.90;;;;;;5073781;28;20533;-58
2021/12/22 07:48:55;;;;;;;16.03;2.60;;;-2.70;99.90;;;;;;5072395;28;20601;-56
2021/12/22 07:51:22;;;;;;;7.90;2.63;;;-2.70;99.90;;;;;;5074689;28;20545;-58
2021/12/22 07:53:52;;;;;;;6.35;3.55;;;-2.70;99.90;;;;;;5075968;28;20480;-58
2021/12/22 07:56:20;;;;;;;9.93;3.03;;;-2.70;99.90;;;;;;5075496;28;20207;-57
2021/12/22 07:58:51;;;;;;;6.10;2.80;;;-2.60;99.90;;;;;;5074553;28;20827;-58
2021/12/22 08:01:19;;;;;;;5.57;2.73;;;-2.60;99.90;;;;;;5075094;28;20478;-59
2021/12/22 08:03:45;;;;;;;3.80;1.30;;;-2.50;99.90;;;;;;5074590;28;20504;-59
2021/12/22 08:06:15;;;;;;;6.73;2.77;;;-2.50;99.90;;;;;;5073248;28;20826;-57
2021/12/22 08:08:45;;;;;;;7.13;2.27;;;-2.50;99.90;;;;;;5073707;28;20819;-58
2021/12/22 08:11:12;;;;;;;4.83;1.87;;;-2.60;99.90;;;;;;5074235;28;20543;-58
2021/12/22 08:13:40;;;;;;;16.63;2.67;;;-2.70;99.90;;;;;;5074391;28;20509;-59
2021/12/22 08:16:11;;;;;;;3.53;1.30;;;-2.80;99.90;;;;;;5073657;28;20988;-59
2021/12/22 08:18:38;;;;;;;4.90;2.27;;;-2.80;99.90;;;;;;5073738;28;20438;-60
2021/12/22 08:21:05;;;;;;;4.87;1.20;;;-2.70;99.90;;;;;;5073218;28;20565;-60
2021/12/22 08:23:32;;;;;;;11.77;3.17;;;-2.70;99.90;;;;;;5073822;28;20454;-60
2021/12/22 08:25:59;;;;;;;4.50;1.77;;;-2.60;99.90;;;;;;5075285;28;20541;-59
2021/12/22 08:28:29;;;;;;;12.03;4.30;;;-2.60;99.90;;;;;;5075166;28;20570;-60
2021/12/22 08:30:57;;;;;;;3.87;1.23;;;-2.60;99.90;;;;;;5074473;28;20932;-60
2021/12/22 08:33:30;;;;;;;6.53;1.50;;;-2.60;99.90;;;;;;5074689;28;20478;-60
2021/12/22 08:38:51;;;;;;;3.80;1.60;;;-2.60;99.90;;;;;;5073164;28;20434;-60
2021/12/22 08:41:19;;;;;;;3.00;1.40;;;-2.50;99.90;;;;;;5073246;28;20493;-59
2021/12/22 08:43:46;;;;;;;9.33;1.60;;;-2.50;99.90;;;;;;5075589;28;20558;-60
2021/12/22 08:46:14;;;;;;;9.90;3.00;;;-2.50;99.90;;;;;;5075753;28;20537;-60
2021/12/22 08:48:41;;;;;;;4.50;2.00;;;-2.40;99.90;;;;;;5074309;28;20905;-60
2021/12/22 08:51:08;;;;;;;7.10;2.03;;;-2.40;99.90;;;;;;5072892;28;20507;-59
2021/12/22 08:53:38;;;;;;;8.73;4.27;;;-2.30;99.90;;;;;;5074594;28;20545;-59
2021/12/22 08:56:07;;;;;;;5.73;2.03;;;-2.30;99.90;;;;;;5075270;28;20549;-58
2021/12/22 08:58:37;;;;;;;4.63;2.07;;;-2.20;99.90;;;;;;5075206;28;20861;-59
2021/12/22 09:01:08;;;;;;;8.27;2.40;;;-2.00;99.90;;;;;;5093022;28;20576;-58
2021/12/22 09:03:36;;;;;;;4.70;2.67;;;-1.90;99.90;;;;;;5096563;28;20466;-58
2021/12/22 09:06:03;;;;;;;4.47;1.87;;;-1.80;99.90;;;;;;5095997;28;20454;-58
2021/12/22 09:08:30;;;;;;;4.93;1.90;;;-1.70;99.90;;;;;;5095897;28;20553;-51
2021/12/22 09:10:58;;;;;;;6.57;2.53;;;-1.70;99.90;;;;;;5095966;28;20792;-58
2021/12/22 09:13:25;;;;;;;5.43;1.83;;;-1.70;99.90;;;;;;5093481;28;20536;-59
2021/12/22 09:15:52;;;;;;;9.60;2.80;;;-1.60;99.90;;;;;;5095139;28;20824;-58
2021/12/22 09:18:19;;;;;;;3.70;1.60;;;-1.30;99.90;;;;;;5094700;28;20477;-59
2021/12/22 09:20:47;;;;;;;12.33;3.70;;;-1.30;99.90;;;;;;5094318;28;21047;-56
2021/12/22 09:23:14;;;;;;;5.40;2.53;;;-1.00;99.90;;;;;;5092074;28;20961;-57
2021/12/22 09:25:41;;;;;;;5.90;3.00;;;-0.90;99.90;;;;;;5092543;28;20488;-55
2021/12/22 09:28:10;;;;;;;4.30;2.10;;;-1.00;99.90;;;;;;5093314;28;20473;-56
2021/12/22 09:30:38;;;;;;;5.20;2.10;;;-1.10;99.90;;;;;;5093685;28;20507;-54
2021/12/22 09:33:06;;;;;;;6.23;2.50;;;-1.20;99.90;;;;;;5094347;28;21212;-56
2021/12/22 09:35:33;;;;;;;5.00;2.40;;;-1.20;99.90;;;;;;5093451;28;20540;-57
2021/12/22 09:38:02;;;;;;;4.87;2.20;;;-1.10;99.90;;;;;;5093419;28;20456;-60
2021/12/22 09:40:29;;;;;;;10.33;3.07;;;-1.10;99.90;;;;;;5093815;28;20580;-60
2021/12/22 09:42:56;;;;;;;8.40;2.73;;;-1.00;99.90;;;;;;5094880;28;20796;-59
2021/12/22 09:45:25;;;;;;;7.93;3.73;;;-1.00;99.90;;;;;;5093744;28;20556;-59
2021/12/22 09:48:20;;;;;;;7.53;3.20;;;-1.00;99.90;;;;;;5095288;28;20445;-59
2021/12/22 09:52:15;;;;;;;3.43;1.40;;;-1.00;99.90;;;;;;5093124;28;20517;-60
2021/12/22 09:53:44;;;;;;;7.03;3.03;;;-0.90;99.90;;;;;;5094587;28;20640;-59
2021/12/22 09:56:12;;;;;;;5.40;1.57;;;-0.80;99.90;;;;;;5093502;28;20574;-59
2021/12/22 09:58:41;;;;;;;7.90;3.13;;;-0.70;99.90;;;;;;5093950;28;20576;-60
2021/12/22 10:01:08;;;;;;;9.80;2.33;;;-0.60;99.90;;;;;;5093592;28;20524;-60
2021/12/22 10:03:35;;;;;;;4.20;2.27;;;-0.50;99.90;;;;;;5093675;28;20532;-60
2021/12/22 10:06:06;;;;;;;6.43;1.80;;;-0.50;99.90;;;;;;5093294;28;20740;-60
2021/12/22 10:08:34;;;;;;;9.63;3.77;;;-0.50;99.90;;;;;;5091830;28;20469;-60
2021/12/22 10:11:09;;;;;;;5.33;1.97;;;-0.30;99.90;;;;;;5092211;28;20445;-60
2021/12/22 10:13:44;;;;;;;7.63;2.77;;;-0.10;99.90;;;;;;5092360;28;20447;-61
2021/12/22 10:16:13;;;;;;;6.83;2.67;;;0.00;99.90;;;;;;5091648;28;20479;-60
2021/12/22 10:18:42;;;;;;;8.40;2.67;;;0.30;99.90;;;;;;5090322;28;20927;-60
2021/12/22 10:21:11;;;;;;;4.90;1.57;;;0.10;99.90;;;;;;5090961;28;20855;-60
2021/12/22 10:23:43;;;;;;;7.73;2.00;;;0.00;99.90;;;;;;5092521;28;20433;-60
2021/12/22 10:26:16;;;;;;;6.97;2.50;;;0.20;99.90;;;;;;5081745;28;20813;-61
2021/12/22 10:28:51;;;;;;;5.10;2.50;;;0.50;99.90;;;;;;5074452;28;20450;-61
2021/12/22 10:31:19;;;;;;;4.90;2.13;;;0.50;99.90;;;;;;5074194;28;20923;-60
2021/12/22 10:33:50;;;;;;;6.17;3.00;;;0.50;99.90;;;;;;5073526;28;20881;-62
2021/12/22 10:36:19;;;;;;;5.47;2.67;;;0.60;99.90;;;;;;5074407;28;20516;-60
2021/12/22 10:38:52;;;;;;;9.13;2.03;;;0.20;99.90;;;;;;5073701;28;20438;-60
2021/12/22 10:41:23;;;;;;;3.17;1.60;;;0.10;99.90;;;;;;5073425;28;20490;-60
2021/12/22 10:43:51;;;;;;;7.93;3.40;;;0.10;99.90;;;;;;5072427;28;20534;-60
2021/12/22 10:46:27;;;;;;;4.87;1.20;;;0.20;99.90;;;;;;5072393;28;20549;-60
2021/12/22 10:49:20;;;;;;;5.27;3.83;;;0.20;99.90;;;;;;5072769;28;20446;-60
2021/12/22 10:51:56;;;;;;;6.10;2.87;;;0.20;99.90;;;;;;5070965;28;20520;-61
2021/12/22 10:54:33;;;;;;;6.47;2.10;;;0.10;99.90;;;;;;5072290;28;20463;-61
2021/12/22 10:57:04;;;;;;;2.90;2.10;;;0.30;99.90;;;;;;5084822;28;20491;-60
2021/12/22 10:59:45;;;;;;;8.53;3.07;;;0.30;99.90;;;;;;5085369;28;20560;-61
2021/12/22 11:02:19;;;;;;;3.20;1.63;;;0.30;99.90;;;;;;5088498;28;20547;-60
2021/12/22 11:04:47;;;;;;;7.00;2.27;;;0.50;99.90;;;;;;5091651;28;20547;-61
2021/12/22 11:07:26;;;;;;;3.83;1.63;;;0.40;99.90;;;;;;5085963;28;20446;-60
2021/12/22 11:09:54;;;;;;;9.60;2.33;;;0.50;99.90;;;;;;5090652;28;20453;-59
2021/12/22 11:12:36;;;;;;;4.07;1.83;;;0.50;99.90;;;;;;5091990;28;20522;-59
2021/12/22 11:15:08;;;;;;;7.43;2.10;;;0.60;99.90;;;;;;5087696;28;20581;-60
2021/12/22 11:17:39;;;;;;;4.37;2.03;;;0.70;99.90;;;;;;5093399;28;20540;-60
2021/12/22 11:20:06;;;;;;;8.50;2.20;;;0.70;99.90;;;;;;5090074;28;20479;-60
2021/12/22 11:22:40;;;;;;;6.33;2.80;;;0.60;99.90;;;;;;5086675;28;20946;-61
2021/12/22 11:25:11;;;;;;;6.67;2.37;;;0.60;99.90;;;;;;5096283;28;20454;-57
2021/12/22 11:27:39;;;;;;;6.50;2.83;;;0.60;99.90;;;;;;5096532;28;20534;-57
2021/12/22 11:30:08;;;;;;;5.67;1.57;;;0.60;99.90;;;;;;5095927;28;20544;-57
2021/12/22 11:32:35;;;;;;;7.30;2.17;;;0.70;99.90;;;;;;5093920;28;20817;-58
2021/12/22 11:35:09;;;;;;;5.70;1.93;;;0.60;99.90;;;;;;5088329;28;20540;-59
2021/12/22 11:37:36;;;;;;;3.97;2.20;;;0.60;99.90;;;;;;5097525;28;20914;-54
2021/12/22 11:40:09;;;;;;;7.27;2.33;;;0.60;99.90;;;;;;5095404;28;20956;-55
2021/12/22 11:42:39;;;;;;;4.50;1.77;;;0.70;99.90;;;;;;5095072;28;20467;-58
2021/12/22 11:45:12;;;;;;;7.23;2.60;;;0.70;99.90;;;;;;5092374;28;20441;-55
2021/12/22 11:47:41;;;;;;;6.63;3.33;;;0.80;99.90;;;;;;5083759;28;20469;-56
2021/12/22 11:50:17;;;;;;;6.77;1.70;;;0.70;99.90;;;;;;5088475;28;20477;-56
2021/12/22 11:52:58;;;;;;;4.53;1.63;;;0.60;99.90;;;;;;5094362;28;20437;-57
2021/12/22 11:55:27;;;;;;;9.87;3.50;;;0.60;99.90;;;;;;5092767;28;20453;-56
2021/12/22 11:58:15;;;;;;;5.57;1.83;;;0.70;99.90;;;;;;5091741;28;20567;-56
2021/12/22 12:00:45;;;;;;;4.47;1.57;;;1.00;99.90;;;;;;5091157;28;20576;-57
2021/12/22 12:03:25;;;;;;;3.13;1.70;;;1.10;99.90;;;;;;5089627;28;20556;-57
2021/12/22 12:06:10;;;;;;;3.83;1.43;;;1.00;99.90;;;;;;5095352;28;20453;-54
2021/12/22 12:08:40;;;;;;;4.63;2.30;;;1.10;99.90;;;;;;5094141;28;20528;-56
2021/12/22 12:11:11;;;;;;;4.00;1.97;;;1.10;99.90;;;;;;5093330;28;20461;-53
2021/12/22 12:13:49;;;;;;;3.33;2.00;;;0.90;99.90;;;;;;5094110;28;20468;-57
2021/12/22 12:22:21;;;;;;;4.20;1.47;;;1.10;99.90;;;;;;5094254;28;20513;-54
2021/12/22 12:25:08;;;;;;;6.37;1.90;;;1.20;99.90;;;;;;5093791;28;20444;-56
2021/12/22 12:27:54;;;;;;;7.10;2.67;;;1.20;99.90;;;;;;5093830;28;20445;-56
2021/12/22 12:30:25;;;;;;;6.50;2.57;;;1.30;99.90;;;;;;5094639;28;20465;-55
2021/12/22 12:33:24;;;;;;;4.83;2.53;;;1.20;99.90;;;;;;5095227;28;20456;-56
2021/12/22 12:36:00;;;;;;;9.17;2.43;;;1.20;99.90;;;;;;5093716;28;20540;-57
2021/12/22 12:38:30;;;;;;;7.83;3.50;;;1.40;99.90;;;;;;5095276;28;20510;-59
2021/12/22 12:41:22;;;;;;;8.40;1.93;;;1.30;99.90;;;;;;5093271;28;20579;-57
2021/12/22 12:44:10;;;;;;;15.63;2.83;;;1.40;99.90;;;;;;5093801;28;20759;-56
2021/12/22 12:46:52;;;;;;;6.07;1.40;;;1.40;99.90;;;;;;5092321;28;20548;-57
2021/12/22 12:49:47;;;;;;;4.63;1.83;;;1.40;99.90;;;;;;5090528;28;20468;-57
2021/12/22 12:52:28;;;;;;;4.97;2.70;;;1.30;99.90;;;;;;5041009;28;20501;-57
2021/12/22 12:55:13;;;;;;;8.33;3.73;;;1.30;99.90;;;;;;5093023;28;20441;-57
2021/12/22 12:57:40;;;;;;;8.38;3.35;;;1.40;99.90;;;;;;5091100;28;20527;-57
2021/12/22 13:00:21;;;;;;;5.00;2.97;;;1.30;99.90;;;;;;5092017;28;20230;-57
2021/12/22 13:02:59;;;;;;;8.57;2.63;;;1.40;99.90;;;;;;5092712;28;20568;-57
2021/12/22 13:05:32;;;;;;;4.93;2.20;;;1.50;99.90;;;;;;5093801;28;20453;-57
2021/12/22 13:08:05;;;;;;;10.73;3.47;;;1.60;99.90;;;;;;5093762;28;20444;-56
2021/12/22 13:10:32;;;;;;;4.87;2.70;;;1.50;99.90;;;;;;5094012;28;20441;-57
2021/12/22 13:13:14;;;;;;;5.50;3.70;;;1.50;99.90;;;;;;5094782;28;20420;-57
2021/12/22 13:15:46;;;;;;;8.93;2.30;;;1.50;99.90;;;;;;5094427;28;20428;-57